sensor_id;sensor_type;location;lat;lon;timestamp;temperature;humidity
12815;DHT22;6472;52.328;13.070;2022-12-18T00:00:07;-5.90;99.90
12815;DHT22;6472;52.328;13.070;2022-12-18T00:02:35;-5.80;99.90
12815;DHT22;6472;52.328;13.070;2022-12-18T00:05:03;-5.80;99.90
12815;DHT22;6472;52.328;13.070;2022-12-18T00:07:31;-5.80;99.90
12815;DHT22;6472;52.328;13.070;2022-12-18T00:10:00;-5.80;99.90
12815;DHT22;6472;52.328;13.070;2022-12-18T00:12:28;-5.80;99.90
12815;DHT22;6472;52.328;13.070;2022-12-18T00:14:56;-5.70;99.90
12815;DHT22;6472;52.328;13.070;2022-12-18T00:17:24;-5.70;99.90
12815;DHT22;6472;52.328;13.070;2022-12-18T00:19:52;-5.60;99.90
12815;DHT22;6472;52.328;13.070;2022-12-18T00:22:20;-5.60;99.90
12815;DHT22;6472;52.328;13.070;2022-12-18T00:24:48;-5.60;99.90
12815;DHT22;6472;52.328;13.070;2022-12-18T00:27:17;-5.60;99.90
12815;DHT22;6472;52.328;13.070;2022-12-18T00:29:45;-5.60;99.90
12815;DHT22;6472;52.328;13.070;2022-12-18T00:32:13;-5.60;99.90
12815;DHT22;6472;52.328;13.070;2022-12-18T00:34:41;-5.50;99.90
12815;DHT22;6472;52.328;13.070;2022-12-18T00:37:09;-5.60;99.90
12815;DHT22;6472;52.328;13.070;2022-12-18T00:39:42;-5.70;99.90
12815;DHT22;6472;52.328;13.070;2022-12-18T00:42:10;-5.70;99.90
12815;DHT22;6472;52.328;13.070;2022-12-18T00:44:57;-5.70;99.90
12815;DHT22;6472;52.328;13.070;2022-12-18T00:47:25;-5.80;99.90
12815;DHT22;6472;52.328;13.070;2022-12-18T00:49:53;-5.80;99.90
12815;DHT22;6472;52.328;13.070;2022-12-18T00:52:21;-5.70;99.90
12815;DHT22;6472;52.328;13.070;2022-12-18T00:54:49;-5.70;99.90
12815;DHT22;6472;52.328;13.070;2022-12-18T00:57:16;-5.80;99.90
12815;DHT22;6472;52.328;13.070;2022-12-18T00:59:44;-5.80;99.90
12815;DHT22;6472;52.328;13.070;2022-12-18T01:02:15;-5.70;99.90
12815;DHT22;6472;52.328;13.070;2022-12-18T01:04:43;-5.70;99.90
12815;DHT22;6472;52.328;13.070;2022-12-18T01:07:11;-5.70;99.90
12815;DHT22;6472;52.328;13.070;2022-12-18T01:09:38;-5.70;99.90
12815;DHT22;6472;52.328;13.070;2022-12-18T01:12:06;-5.70;99.90
12815;DHT22;6472;52.328;13.070;2022-12-18T01:14:34;-5.70;99.90
12815;DHT22;6472;52.328;13.070;2022-12-18T01:17:02;-5.70;99.90
12815;DHT22;6472;52.328;13.070;2022-12-18T01:19:32;-5.70;99.90
12815;DHT22;6472;52.328;13.070;2022-12-18T01:22:00;-5.70;99.90
12815;DHT22;6472;52.328;13.070;2022-12-18T01:24:28;-5.80;99.90
12815;DHT22;6472;52.328;13.070;2022-12-18T01:26:56;-5.70;99.90
12815;DHT22;6472;52.328;13.070;2022-12-18T01:29:24;-5.70;99.90
12815;DHT22;6472;52.328;13.070;2022-12-18T01:31:54;-5.80;99.90
12815;DHT22;6472;52.328;13.070;2022-12-18T01:34:23;-5.80;99.90
12815;DHT22;6472;52.328;13.070;2022-12-18T01:36:52;-5.80;99.90
12815;DHT22;6472;52.328;13.070;2022-12-18T01:39:20;-5.90;99.90
12815;DHT22;6472;52.328;13.070;2022-12-18T01:41:48;-5.80;99.90
12815;DHT22;6472;52.328;13.070;2022-12-18T01:45:03;-5.70;99.90
12815;DHT22;6472;52.328;13.070;2022-12-18T01:47:36;-5.70;99.90
12815;DHT22;6472;52.328;13.070;2022-12-18T01:50:08;-5.80;99.90
12815;DHT22;6472;52.328;13.070;2022-12-18T01:52:41;-5.80;99.90
12815;DHT22;6472;52.328;13.070;2022-12-18T01:55:11;-5.80;99.90
12815;DHT22;6472;52.328;13.070;2022-12-18T01:57:40;-5.80;99.90
12815;DHT22;6472;52.328;13.070;2022-12-18T02:00:13;-5.80;99.90
12815;DHT22;6472;52.328;13.070;2022-12-18T02:02:41;-5.80;99.90
12815;DHT22;6472;52.328;13.070;2022-12-18T02:05:12;-5.90;99.90
12815;DHT22;6472;52.328;13.070;2022-12-18T02:07:49;-5.90;99.90
12815;DHT22;6472;52.328;13.070;2022-12-18T02:10:25;-5.90;99.90
12815;DHT22;6472;52.328;13.070;2022-12-18T02:13:02;-5.90;99.90
12815;DHT22;6472;52.328;13.070;2022-12-18T02:15:39;-5.90;99.90
12815;DHT22;6472;52.328;13.070;2022-12-18T02:18:12;-6.00;99.90
12815;DHT22;6472;52.328;13.070;2022-12-18T02:20:45;-6.00;99.90
12815;DHT22;6472;52.328;13.070;2022-12-18T02:23:29;-5.90;99.90
12815;DHT22;6472;52.328;13.070;2022-12-18T02:26:10;-5.80;99.90
12815;DHT22;6472;52.328;13.070;2022-12-18T02:28:43;-5.90;99.90
12815;DHT22;6472;52.328;13.070;2022-12-18T02:31:18;-5.90;99.90
12815;DHT22;6472;52.328;13.070;2022-12-18T02:33:53;-6.00;99.90
12815;DHT22;6472;52.328;13.070;2022-12-18T02:36:27;-6.00;99.90
12815;DHT22;6472;52.328;13.070;2022-12-18T02:38:56;-5.90;99.90
12815;DHT22;6472;52.328;13.070;2022-12-18T02:41:28;-5.90;99.90
12815;DHT22;6472;52.328;13.070;2022-12-18T02:43:59;-5.90;99.90
12815;DHT22;6472;52.328;13.070;2022-12-18T02:46:34;-5.90;99.90
12815;DHT22;6472;52.328;13.070;2022-12-18T02:49:09;-5.90;99.90
12815;DHT22;6472;52.328;13.070;2022-12-18T02:51:48;-5.90;99.90
12815;DHT22;6472;52.328;13.070;2022-12-18T02:54:26;-5.90;99.90
12815;DHT22;6472;52.328;13.070;2022-12-18T02:57:05;-5.90;99.90
12815;DHT22;6472;52.328;13.070;2022-12-18T02:59:41;-5.90;99.90
12815;DHT22;6472;52.328;13.070;2022-12-18T03:02:19;-6.00;99.90
12815;DHT22;6472;52.328;13.070;2022-12-18T03:04:54;-6.00;99.90
12815;DHT22;6472;52.328;13.070;2022-12-18T03:07:33;-6.00;99.90
12815;DHT22;6472;52.328;13.070;2022-12-18T03:10:01;-5.90;99.90
12815;DHT22;6472;52.328;13.070;2022-12-18T03:12:34;-5.90;99.90
12815;DHT22;6472;52.328;13.070;2022-12-18T03:15:07;-5.80;99.90
12815;DHT22;6472;52.328;13.070;2022-12-18T03:17:48;-5.90;99.90
12815;DHT22;6472;52.328;13.070;2022-12-18T03:20:19;-5.90;99.90
12815;DHT22;6472;52.328;13.070;2022-12-18T03:22:51;-5.90;99.90
12815;DHT22;6472;52.328;13.070;2022-12-18T03:25:21;-6.00;99.90
12815;DHT22;6472;52.328;13.070;2022-12-18T03:27:54;-6.00;99.90
12815;DHT22;6472;52.328;13.070;2022-12-18T03:30:25;-6.00;99.90
12815;DHT22;6472;52.328;13.070;2022-12-18T03:32:58;-5.90;99.90
12815;DHT22;6472;52.328;13.070;2022-12-18T03:35:33;-5.80;99.90
12815;DHT22;6472;52.328;13.070;2022-12-18T03:38:03;-5.90;99.90
12815;DHT22;6472;52.328;13.070;2022-12-18T03:40:35;-5.90;99.90
12815;DHT22;6472;52.328;13.070;2022-12-18T03:43:10;-5.90;99.90
12815;DHT22;6472;52.328;13.070;2022-12-18T03:45:44;-5.90;99.90
12815;DHT22;6472;52.328;13.070;2022-12-18T03:48:18;-5.80;99.90
12815;DHT22;6472;52.328;13.070;2022-12-18T03:50:52;-5.80;99.90
12815;DHT22;6472;52.328;13.070;2022-12-18T03:53:28;-5.80;99.90
12815;DHT22;6472;52.328;13.070;2022-12-18T03:56:00;-5.90;99.90
12815;DHT22;6472;52.328;13.070;2022-12-18T03:58:32;-5.90;99.90
12815;DHT22;6472;52.328;13.070;2022-12-18T04:01:04;-5.90;99.90
12815;DHT22;6472;52.328;13.070;2022-12-18T04:03:36;-5.90;99.90
12815;DHT22;6472;52.328;13.070;2022-12-18T04:06:06;-5.90;99.90
12815;DHT22;6472;52.328;13.070;2022-12-18T04:08:35;-5.90;99.90
12815;DHT22;6472;52.328;13.070;2022-12-18T04:11:03;-5.80;99.90
12815;DHT22;6472;52.328;13.070;2022-12-18T04:13:35;-5.80;99.90
12815;DHT22;6472;52.328;13.070;2022-12-18T04:16:04;-5.80;99.90
12815;DHT22;6472;52.328;13.070;2022-12-18T04:18:33;-5.90;99.90
12815;DHT22;6472;52.328;13.070;2022-12-18T04:21:01;-5.90;99.90
12815;DHT22;6472;52.328;13.070;2022-12-18T04:23:29;-5.90;99.90
12815;DHT22;6472;52.328;13.070;2022-12-18T04:25:57;-5.90;99.90
12815;DHT22;6472;52.328;13.070;2022-12-18T04:28:25;-6.00;99.90
12815;DHT22;6472;52.328;13.070;2022-12-18T04:30:54;-6.00;99.90
12815;DHT22;6472;52.328;13.070;2022-12-18T04:33:22;-6.10;99.90
12815;DHT22;6472;52.328;13.070;2022-12-18T04:35:52;-6.10;99.90
12815;DHT22;6472;52.328;13.070;2022-12-18T04:38:20;-6.00;99.90
12815;DHT22;6472;52.328;13.070;2022-12-18T04:40:48;-6.10;99.90
12815;DHT22;6472;52.328;13.070;2022-12-18T04:43:17;-6.00;99.90
12815;DHT22;6472;52.328;13.070;2022-12-18T04:45:46;-6.00;99.90
12815;DHT22;6472;52.328;13.070;2022-12-18T04:48:16;-6.00;99.90
12815;DHT22;6472;52.328;13.070;2022-12-18T04:50:46;-5.90;99.90
12815;DHT22;6472;52.328;13.070;2022-12-18T04:53:14;-5.90;99.90
12815;DHT22;6472;52.328;13.070;2022-12-18T04:55:42;-6.00;99.90
12815;DHT22;6472;52.328;13.070;2022-12-18T04:58:10;-6.00;99.90
12815;DHT22;6472;52.328;13.070;2022-12-18T05:00:38;-5.80;99.90
12815;DHT22;6472;52.328;13.070;2022-12-18T05:03:06;-5.80;99.90
12815;DHT22;6472;52.328;13.070;2022-12-18T05:05:36;-5.80;99.90
12815;DHT22;6472;52.328;13.070;2022-12-18T05:08:04;-5.70;99.90
12815;DHT22;6472;52.328;13.070;2022-12-18T05:10:32;-5.70;99.90
12815;DHT22;6472;52.328;13.070;2022-12-18T05:13:04;-5.70;99.90
12815;DHT22;6472;52.328;13.070;2022-12-18T05:15:32;-5.70;99.90
12815;DHT22;6472;52.328;13.070;2022-12-18T05:18:02;-5.70;99.90
12815;DHT22;6472;52.328;13.070;2022-12-18T05:20:30;-5.80;99.90
12815;DHT22;6472;52.328;13.070;2022-12-18T05:22:59;-5.80;99.90
12815;DHT22;6472;52.328;13.070;2022-12-18T05:25:27;-5.70;99.90
12815;DHT22;6472;52.328;13.070;2022-12-18T05:27:56;-5.70;99.90
12815;DHT22;6472;52.328;13.070;2022-12-18T05:30:25;-5.70;99.90
12815;DHT22;6472;52.328;13.070;2022-12-18T05:32:54;-5.70;99.90
12815;DHT22;6472;52.328;13.070;2022-12-18T05:35:22;-5.70;99.90
12815;DHT22;6472;52.328;13.070;2022-12-18T05:37:50;-5.60;99.90
12815;DHT22;6472;52.328;13.070;2022-12-18T05:40:19;-5.60;99.90
12815;DHT22;6472;52.328;13.070;2022-12-18T05:42:48;-5.60;99.90
12815;DHT22;6472;52.328;13.070;2022-12-18T05:45:16;-5.50;99.90
12815;DHT22;6472;52.328;13.070;2022-12-18T05:47:44;-5.50;99.90
12815;DHT22;6472;52.328;13.070;2022-12-18T05:50:12;-5.40;99.90
12815;DHT22;6472;52.328;13.070;2022-12-18T05:52:40;-5.50;99.90
12815;DHT22;6472;52.328;13.070;2022-12-18T05:55:09;-5.40;99.90
12815;DHT22;6472;52.328;13.070;2022-12-18T05:57:38;-5.40;99.90
12815;DHT22;6472;52.328;13.070;2022-12-18T06:00:07;-5.50;99.90
12815;DHT22;6472;52.328;13.070;2022-12-18T06:02:36;-5.40;99.90
12815;DHT22;6472;52.328;13.070;2022-12-18T06:05:05;-5.40;99.90
12815;DHT22;6472;52.328;13.070;2022-12-18T06:07:33;-5.30;99.90
12815;DHT22;6472;52.328;13.070;2022-12-18T06:10:01;-5.30;99.90
12815;DHT22;6472;52.328;13.070;2022-12-18T06:12:29;-5.40;99.90
12815;DHT22;6472;52.328;13.070;2022-12-18T06:14:58;-5.40;99.90
12815;DHT22;6472;52.328;13.070;2022-12-18T06:17:28;-5.40;99.90
12815;DHT22;6472;52.328;13.070;2022-12-18T06:19:56;-5.30;99.90
12815;DHT22;6472;52.328;13.070;2022-12-18T06:22:24;-5.30;99.90
12815;DHT22;6472;52.328;13.070;2022-12-18T06:24:53;-5.30;99.90
12815;DHT22;6472;52.328;13.070;2022-12-18T06:27:21;-5.30;99.90
12815;DHT22;6472;52.328;13.070;2022-12-18T06:29:49;-5.20;99.90
12815;DHT22;6472;52.328;13.070;2022-12-18T06:32:19;-5.20;99.90
12815;DHT22;6472;52.328;13.070;2022-12-18T06:34:47;-5.20;99.90
12815;DHT22;6472;52.328;13.070;2022-12-18T06:37:15;-5.30;99.90
12815;DHT22;6472;52.328;13.070;2022-12-18T06:39:43;-5.20;99.90
12815;DHT22;6472;52.328;13.070;2022-12-18T06:42:11;-5.10;99.90
12815;DHT22;6472;52.328;13.070;2022-12-18T06:44:39;-5.10;99.90
12815;DHT22;6472;52.328;13.070;2022-12-18T06:47:07;-5.10;99.90
12815;DHT22;6472;52.328;13.070;2022-12-18T06:49:37;-5.10;99.90
12815;DHT22;6472;52.328;13.070;2022-12-18T06:52:05;-5.10;99.90
12815;DHT22;6472;52.328;13.070;2022-12-18T06:54:33;-5.10;99.90
12815;DHT22;6472;52.328;13.070;2022-12-18T06:57:01;-5.10;99.90
12815;DHT22;6472;52.328;13.070;2022-12-18T06:59:29;-5.20;99.90
12815;DHT22;6472;52.328;13.070;2022-12-18T07:01:57;-5.10;99.90
12815;DHT22;6472;52.328;13.070;2022-12-18T07:04:28;-5.10;99.90
12815;DHT22;6472;52.328;13.070;2022-12-18T07:06:57;-5.10;99.90
12815;DHT22;6472;52.328;13.070;2022-12-18T07:09:26;-5.00;99.90
12815;DHT22;6472;52.328;13.070;2022-12-18T07:11:57;-4.90;99.90
12815;DHT22;6472;52.328;13.070;2022-12-18T07:14:25;-5.00;99.90
12815;DHT22;6472;52.328;13.070;2022-12-18T07:16:53;-5.00;99.90
12815;DHT22;6472;52.328;13.070;2022-12-18T07:19:22;-5.00;99.90
12815;DHT22;6472;52.328;13.070;2022-12-18T07:21:53;-5.00;99.90
12815;DHT22;6472;52.328;13.070;2022-12-18T07:24:22;-5.00;99.90
12815;DHT22;6472;52.328;13.070;2022-12-18T07:26:51;-5.00;99.90
12815;DHT22;6472;52.328;13.070;2022-12-18T07:29:19;-5.00;99.90
12815;DHT22;6472;52.328;13.070;2022-12-18T07:31:48;-5.00;99.90
12815;DHT22;6472;52.328;13.070;2022-12-18T07:34:16;-5.00;99.90
12815;DHT22;6472;52.328;13.070;2022-12-18T07:36:44;-4.90;99.90
12815;DHT22;6472;52.328;13.070;2022-12-18T07:39:12;-4.90;99.90
12815;DHT22;6472;52.328;13.070;2022-12-18T07:41:42;-4.90;99.90
12815;DHT22;6472;52.328;13.070;2022-12-18T07:44:13;-4.90;99.90
12815;DHT22;6472;52.328;13.070;2022-12-18T07:46:42;-4.80;99.90
12815;DHT22;6472;52.328;13.070;2022-12-18T07:49:10;-4.80;99.90
12815;DHT22;6472;52.328;13.070;2022-12-18T07:51:38;-4.80;99.90
12815;DHT22;6472;52.328;13.070;2022-12-18T07:54:07;-4.80;99.90
12815;DHT22;6472;52.328;13.070;2022-12-18T07:56:35;-4.80;99.90
12815;DHT22;6472;52.328;13.070;2022-12-18T07:59:08;-4.70;99.90
12815;DHT22;6472;52.328;13.070;2022-12-18T08:01:36;-4.70;99.90
12815;DHT22;6472;52.328;13.070;2022-12-18T08:04:06;-4.70;99.90
12815;DHT22;6472;52.328;13.070;2022-12-18T08:06:35;-4.70;99.90
12815;DHT22;6472;52.328;13.070;2022-12-18T08:09:03;-4.70;99.90
12815;DHT22;6472;52.328;13.070;2022-12-18T08:11:32;-4.70;99.90
12815;DHT22;6472;52.328;13.070;2022-12-18T08:14:00;-4.70;99.90
12815;DHT22;6472;52.328;13.070;2022-12-18T08:16:30;-4.70;99.90
12815;DHT22;6472;52.328;13.070;2022-12-18T08:18:58;-4.60;99.90
12815;DHT22;6472;52.328;13.070;2022-12-18T08:21:28;-4.60;99.90
12815;DHT22;6472;52.328;13.070;2022-12-18T08:23:59;-4.50;99.90
12815;DHT22;6472;52.328;13.070;2022-12-18T08:26:29;-4.60;99.90
12815;DHT22;6472;52.328;13.070;2022-12-18T08:28:59;-4.60;99.90
12815;DHT22;6472;52.328;13.070;2022-12-18T08:31:30;-4.60;99.90
12815;DHT22;6472;52.328;13.070;2022-12-18T08:33:58;-4.60;99.90
12815;DHT22;6472;52.328;13.070;2022-12-18T08:36:26;-4.50;99.90
12815;DHT22;6472;52.328;13.070;2022-12-18T08:38:55;-4.50;99.90
12815;DHT22;6472;52.328;13.070;2022-12-18T08:41:25;-4.50;99.90
12815;DHT22;6472;52.328;13.070;2022-12-18T08:43:56;-4.50;99.90
12815;DHT22;6472;52.328;13.070;2022-12-18T08:46:45;-4.50;99.90
12815;DHT22;6472;52.328;13.070;2022-12-18T08:49:13;-4.60;99.90
12815;DHT22;6472;52.328;13.070;2022-12-18T08:51:41;-4.50;99.90
12815;DHT22;6472;52.328;13.070;2022-12-18T08:54:16;-4.50;99.90
12815;DHT22;6472;52.328;13.070;2022-12-18T08:56:51;-4.50;99.90
12815;DHT22;6472;52.328;13.070;2022-12-18T08:59:20;-4.40;99.90
12815;DHT22;6472;52.328;13.070;2022-12-18T09:01:49;-4.40;99.90
12815;DHT22;6472;52.328;13.070;2022-12-18T09:04:18;-4.40;99.90
12815;DHT22;6472;52.328;13.070;2022-12-18T09:06:46;-4.40;99.90
12815;DHT22;6472;52.328;13.070;2022-12-18T09:09:14;-4.30;99.90
12815;DHT22;6472;52.328;13.070;2022-12-18T09:11:43;-4.30;99.90
12815;DHT22;6472;52.328;13.070;2022-12-18T09:14:11;-4.30;99.90
12815;DHT22;6472;52.328;13.070;2022-12-18T09:16:39;-4.50;99.90
12815;DHT22;6472;52.328;13.070;2022-12-18T09:19:10;-4.40;99.90
12815;DHT22;6472;52.328;13.070;2022-12-18T09:21:38;-4.40;99.90
12815;DHT22;6472;52.328;13.070;2022-12-18T09:24:14;-4.30;99.90
12815;DHT22;6472;52.328;13.070;2022-12-18T09:26:43;-4.30;99.90
12815;DHT22;6472;52.328;13.070;2022-12-18T09:29:14;-4.20;99.90
12815;DHT22;6472;52.328;13.070;2022-12-18T09:31:44;-4.30;99.90
12815;DHT22;6472;52.328;13.070;2022-12-18T09:34:15;-4.40;99.90
12815;DHT22;6472;52.328;13.070;2022-12-18T09:36:43;-4.30;99.90
12815;DHT22;6472;52.328;13.070;2022-12-18T09:39:13;-4.10;99.90
12815;DHT22;6472;52.328;13.070;2022-12-18T09:41:44;-4.10;99.90
12815;DHT22;6472;52.328;13.070;2022-12-18T09:44:23;-4.10;99.90
12815;DHT22;6472;52.328;13.070;2022-12-18T09:47:09;-4.10;99.90
12815;DHT22;6472;52.328;13.070;2022-12-18T09:49:42;-4.00;99.90
12815;DHT22;6472;52.328;13.070;2022-12-18T09:52:14;-4.00;99.90
12815;DHT22;6472;52.328;13.070;2022-12-18T09:54:46;-4.00;99.90
12815;DHT22;6472;52.328;13.070;2022-12-18T09:57:20;-4.00;99.90
12815;DHT22;6472;52.328;13.070;2022-12-18T09:59:53;-4.00;99.90
12815;DHT22;6472;52.328;13.070;2022-12-18T10:02:24;-4.00;99.90
12815;DHT22;6472;52.328;13.070;2022-12-18T10:05:04;-3.90;99.90
12815;DHT22;6472;52.328;13.070;2022-12-18T10:07:52;-3.90;99.90
12815;DHT22;6472;52.328;13.070;2022-12-18T10:10:32;-3.90;99.90
12815;DHT22;6472;52.328;13.070;2022-12-18T10:13:08;-3.80;99.90
12815;DHT22;6472;52.328;13.070;2022-12-18T10:15:49;-3.90;99.90
12815;DHT22;6472;52.328;13.070;2022-12-18T10:18:28;-3.80;99.90
12815;DHT22;6472;52.328;13.070;2022-12-18T10:21:05;-3.80;99.90
12815;DHT22;6472;52.328;13.070;2022-12-18T10:23:43;-3.80;99.90
12815;DHT22;6472;52.328;13.070;2022-12-18T10:26:14;-4.00;99.90
12815;DHT22;6472;52.328;13.070;2022-12-18T10:28:43;-3.90;99.90
12815;DHT22;6472;52.328;13.070;2022-12-18T10:31:15;-3.90;99.90
12815;DHT22;6472;52.328;13.070;2022-12-18T10:33:45;-3.90;99.90
12815;DHT22;6472;52.328;13.070;2022-12-18T10:36:15;-3.90;99.90
12815;DHT22;6472;52.328;13.070;2022-12-18T10:38:43;-3.90;99.90
12815;DHT22;6472;52.328;13.070;2022-12-18T10:41:24;-3.90;99.90
12815;DHT22;6472;52.328;13.070;2022-12-18T10:44:14;-3.90;99.90
12815;DHT22;6472;52.328;13.070;2022-12-18T10:46:44;-3.80;99.90
12815;DHT22;6472;52.328;13.070;2022-12-18T10:49:21;-3.90;99.90
12815;DHT22;6472;52.328;13.070;2022-12-18T10:52:05;-3.90;99.90
12815;DHT22;6472;52.328;13.070;2022-12-18T10:54:34;-3.90;99.90
12815;DHT22;6472;52.328;13.070;2022-12-18T10:57:17;-3.80;99.90
12815;DHT22;6472;52.328;13.070;2022-12-18T10:59:53;-3.80;99.90
12815;DHT22;6472;52.328;13.070;2022-12-18T11:02:27;-3.80;99.90
12815;DHT22;6472;52.328;13.070;2022-12-18T11:05:22;-3.80;99.90
12815;DHT22;6472;52.328;13.070;2022-12-18T11:07:53;-3.70;99.90
12815;DHT22;6472;52.328;13.070;2022-12-18T11:10:24;-3.70;99.90
12815;DHT22;6472;52.328;13.070;2022-12-18T11:12:55;-3.80;99.90
12815;DHT22;6472;52.328;13.070;2022-12-18T11:15:26;-3.80;99.90
12815;DHT22;6472;52.328;13.070;2022-12-18T11:17:56;-3.90;99.90
12815;DHT22;6472;52.328;13.070;2022-12-18T11:20:31;-3.90;99.90
12815;DHT22;6472;52.328;13.070;2022-12-18T11:23:03;-3.90;99.90
12815;DHT22;6472;52.328;13.070;2022-12-18T11:25:35;-3.90;99.90
12815;DHT22;6472;52.328;13.070;2022-12-18T11:28:24;-3.80;99.90
12815;DHT22;6472;52.328;13.070;2022-12-18T11:31:20;-3.80;99.90
12815;DHT22;6472;52.328;13.070;2022-12-18T11:34:02;-3.90;99.90
12815;DHT22;6472;52.328;13.070;2022-12-18T11:36:52;-3.90;99.90
12815;DHT22;6472;52.328;13.070;2022-12-18T11:39:27;-3.80;99.90
12815;DHT22;6472;52.328;13.070;2022-12-18T11:42:03;-3.80;99.90
12815;DHT22;6472;52.328;13.070;2022-12-18T11:44:42;-3.80;99.90
12815;DHT22;6472;52.328;13.070;2022-12-18T11:47:18;-3.70;99.90
12815;DHT22;6472;52.328;13.070;2022-12-18T11:49:49;-3.70;99.90
12815;DHT22;6472;52.328;13.070;2022-12-18T11:52:21;-3.60;99.90
12815;DHT22;6472;52.328;13.070;2022-12-18T11:54:53;-3.60;99.90
12815;DHT22;6472;52.328;13.070;2022-12-18T11:57:31;-3.70;99.90
12815;DHT22;6472;52.328;13.070;2022-12-18T12:00:09;-3.60;99.90
12815;DHT22;6472;52.328;13.070;2022-12-18T12:05:41;-3.50;99.90
12815;DHT22;6472;52.328;13.070;2022-12-18T12:08:17;-3.50;99.90
12815;DHT22;6472;52.328;13.070;2022-12-18T12:10:57;-3.50;99.90
12815;DHT22;6472;52.328;13.070;2022-12-18T12:13:38;-3.40;99.90
12815;DHT22;6472;52.328;13.070;2022-12-18T12:16:17;-3.50;99.90
12815;DHT22;6472;52.328;13.070;2022-12-18T12:18:54;-3.60;99.90
12815;DHT22;6472;52.328;13.070;2022-12-18T12:21:31;-3.40;99.90
12815;DHT22;6472;52.328;13.070;2022-12-18T12:24:10;-3.40;99.90
12815;DHT22;6472;52.328;13.070;2022-12-18T12:26:48;-3.50;99.90
12815;DHT22;6472;52.328;13.070;2022-12-18T12:29:35;-3.40;99.90
12815;DHT22;6472;52.328;13.070;2022-12-18T12:32:15;-3.30;99.90
12815;DHT22;6472;52.328;13.070;2022-12-18T12:34:57;-3.30;99.90
12815;DHT22;6472;52.328;13.070;2022-12-18T12:37:41;-3.30;99.90
12815;DHT22;6472;52.328;13.070;2022-12-18T12:40:18;-3.20;99.90
12815;DHT22;6472;52.328;13.070;2022-12-18T12:43:27;-3.20;99.90
12815;DHT22;6472;52.328;13.070;2022-12-18T12:45:59;-3.20;99.90
12815;DHT22;6472;52.328;13.070;2022-12-18T12:48:35;-3.20;99.90
12815;DHT22;6472;52.328;13.070;2022-12-18T12:51:12;-3.20;99.90
12815;DHT22;6472;52.328;13.070;2022-12-18T12:53:41;-3.20;99.90
12815;DHT22;6472;52.328;13.070;2022-12-18T12:56:13;-3.20;99.90
12815;DHT22;6472;52.328;13.070;2022-12-18T12:58:52;-3.10;99.90
12815;DHT22;6472;52.328;13.070;2022-12-18T13:01:28;-3.20;99.90
12815;DHT22;6472;52.328;13.070;2022-12-18T13:04:08;-3.30;99.90
12815;DHT22;6472;52.328;13.070;2022-12-18T13:06:45;-3.30;99.90
12815;DHT22;6472;52.328;13.070;2022-12-18T13:09:15;-3.20;99.90
12815;DHT22;6472;52.328;13.070;2022-12-18T13:11:45;-3.20;99.90
12815;DHT22;6472;52.328;13.070;2022-12-18T13:14:33;-3.20;99.90
12815;DHT22;6472;52.328;13.070;2022-12-18T13:17:24;-3.20;99.90
12815;DHT22;6472;52.328;13.070;2022-12-18T13:20:11;-3.20;99.90
12815;DHT22;6472;52.328;13.070;2022-12-18T13:22:45;-3.20;99.90
12815;DHT22;6472;52.328;13.070;2022-12-18T13:25:33;-3.20;99.90
12815;DHT22;6472;52.328;13.070;2022-12-18T13:28:07;-3.20;99.90
12815;DHT22;6472;52.328;13.070;2022-12-18T13:30:49;-3.20;99.90
12815;DHT22;6472;52.328;13.070;2022-12-18T13:33:47;-3.20;99.90
12815;DHT22;6472;52.328;13.070;2022-12-18T13:36:35;-3.30;99.90
12815;DHT22;6472;52.328;13.070;2022-12-18T13:42:36;-3.20;99.90
12815;DHT22;6472;52.328;13.070;2022-12-18T13:45:40;-3.30;99.90
12815;DHT22;6472;52.328;13.070;2022-12-18T13:48:18;-3.30;99.90
12815;DHT22;6472;52.328;13.070;2022-12-18T13:50:52;-3.20;99.90
12815;DHT22;6472;52.328;13.070;2022-12-18T13:53:23;-3.10;99.90
12815;DHT22;6472;52.328;13.070;2022-12-18T13:55:53;-3.20;99.90
12815;DHT22;6472;52.328;13.070;2022-12-18T13:58:22;-3.20;99.90
12815;DHT22;6472;52.328;13.070;2022-12-18T14:00:50;-3.20;99.90
12815;DHT22;6472;52.328;13.070;2022-12-18T14:03:22;-3.20;99.90
12815;DHT22;6472;52.328;13.070;2022-12-18T14:05:59;-3.30;99.90
12815;DHT22;6472;52.328;13.070;2022-12-18T14:08:34;-3.30;99.90
12815;DHT22;6472;52.328;13.070;2022-12-18T14:11:04;-3.40;99.90
12815;DHT22;6472;52.328;13.070;2022-12-18T14:13:37;-3.40;99.90
12815;DHT22;6472;52.328;13.070;2022-12-18T14:16:11;-3.30;99.90
12815;DHT22;6472;52.328;13.070;2022-12-18T14:18:45;-3.30;99.90
12815;DHT22;6472;52.328;13.070;2022-12-18T14:21:22;-3.30;99.90
12815;DHT22;6472;52.328;13.070;2022-12-18T14:24:04;-3.30;99.90
12815;DHT22;6472;52.328;13.070;2022-12-18T14:26:32;-3.30;99.90
12815;DHT22;6472;52.328;13.070;2022-12-18T14:29:19;-3.40;99.90
12815;DHT22;6472;52.328;13.070;2022-12-18T14:32:12;-3.40;99.90
12815;DHT22;6472;52.328;13.070;2022-12-18T14:34:47;-3.50;99.90
12815;DHT22;6472;52.328;13.070;2022-12-18T14:37:17;-3.60;99.90
12815;DHT22;6472;52.328;13.070;2022-12-18T14:39:53;-3.60;99.90
12815;DHT22;6472;52.328;13.070;2022-12-18T14:42:22;-3.70;99.90
12815;DHT22;6472;52.328;13.070;2022-12-18T14:44:50;-3.70;99.90
12815;DHT22;6472;52.328;13.070;2022-12-18T14:47:38;-3.70;99.90
12815;DHT22;6472;52.328;13.070;2022-12-18T14:50:13;-3.60;99.90
12815;DHT22;6472;52.328;13.070;2022-12-18T14:52:41;-3.70;99.90
12815;DHT22;6472;52.328;13.070;2022-12-18T14:55:15;-3.70;99.90
12815;DHT22;6472;52.328;13.070;2022-12-18T14:57:44;-3.70;99.90
12815;DHT22;6472;52.328;13.070;2022-12-18T15:00:16;-3.70;99.90
12815;DHT22;6472;52.328;13.070;2022-12-18T15:02:46;-3.70;99.90
12815;DHT22;6472;52.328;13.070;2022-12-18T15:05:20;-3.70;99.90
12815;DHT22;6472;52.328;13.070;2022-12-18T15:07:50;-3.70;99.90
12815;DHT22;6472;52.328;13.070;2022-12-18T15:10:21;-3.80;99.90
12815;DHT22;6472;52.328;13.070;2022-12-18T15:12:50;-3.80;99.90
12815;DHT22;6472;52.328;13.070;2022-12-18T15:15:47;-3.70;99.90
12815;DHT22;6472;52.328;13.070;2022-12-18T15:18:17;-3.80;99.90
12815;DHT22;6472;52.328;13.070;2022-12-18T15:20:49;-3.80;99.90
12815;DHT22;6472;52.328;13.070;2022-12-18T15:23:20;-3.80;99.90
12815;DHT22;6472;52.328;13.070;2022-12-18T15:25:55;-3.90;99.90
12815;DHT22;6472;52.328;13.070;2022-12-18T15:28:26;-3.90;99.90
12815;DHT22;6472;52.328;13.070;2022-12-18T15:31:05;-4.00;99.90
12815;DHT22;6472;52.328;13.070;2022-12-18T15:33:35;-3.90;99.90
12815;DHT22;6472;52.328;13.070;2022-12-18T15:36:10;-3.90;99.90
12815;DHT22;6472;52.328;13.070;2022-12-18T15:38:38;-4.00;99.90
12815;DHT22;6472;52.328;13.070;2022-12-18T15:41:11;-3.90;99.90
12815;DHT22;6472;52.328;13.070;2022-12-18T15:43:48;-4.00;99.90
12815;DHT22;6472;52.328;13.070;2022-12-18T15:46:17;-4.00;99.90
12815;DHT22;6472;52.328;13.070;2022-12-18T15:48:47;-4.10;99.90
12815;DHT22;6472;52.328;13.070;2022-12-18T15:51:20;-4.20;99.90
12815;DHT22;6472;52.328;13.070;2022-12-18T15:53:51;-4.20;99.90
12815;DHT22;6472;52.328;13.070;2022-12-18T15:56:20;-4.20;99.90
12815;DHT22;6472;52.328;13.070;2022-12-18T15:59:09;-4.20;99.90
12815;DHT22;6472;52.328;13.070;2022-12-18T16:01:38;-4.30;99.90
12815;DHT22;6472;52.328;13.070;2022-12-18T16:04:09;-4.30;99.90
12815;DHT22;6472;52.328;13.070;2022-12-18T16:06:40;-4.30;99.90
12815;DHT22;6472;52.328;13.070;2022-12-18T16:09:28;-4.30;99.90